Terminal Aerodrome Forecast
Issued by NWS

Home | Current Version | Previous Version | Text Only | Print | Product List | Glossary On
Versions: 1 2 3 4 5 6 7 8 9 10 11 12 13 14 15 16 17
000
FTUS43 KOAX 061200 CCA
TAFSNY
TAF COR
KSNY 061200Z 0612/0712 13008KT 1SM BR BKN002 OVC006
     FM061600 17008KT P6SM BKN007 OVC020
     FM061800 VRB06KT 6SM BR VCSH SCT010 OVC020
     FM062100 30010KT 5SM -SHRA SCT015 OVC035
     FM070200 34010KT P6SM SCT007 OVC015=

USA.gov is the U.S. government's official web portal to all federal, state and local government web resources and services.